Terminal Aerodrome Forecast
Issued by NWS Cleveland, OH

Home | Current Version | Previous Version | Graphics & Text | Print | Product List | Glossary On
Versions: 1 2 3 4 5 6 7 8 9 10 11 12 13 14 15 16 17
000
FTUS41 KCLE 201700
TAFMFD
TAF
KMFD 201740Z 2018/2118 09004KT P6SM BKN035
     FM210100 00000KT P6SM SCT250
     FM210800 00000KT 4SM BR SCT250
     FM211000 00000KT 2SM BR SCT250
     FM211400 00000KT P6SM SCT035=

USA.gov is the U.S. government's official web portal to all federal, state and local government web resources and services.